createdAt,value
2019-03-04T00:02:00.150Z,11.40
2019-03-04T00:04:28.744Z,11.40
2019-03-04T00:06:57.313Z,11.40
2019-03-04T00:09:25.834Z,11.50
2019-03-04T00:11:54.466Z,11.50
2019-03-04T00:14:23.047Z,11.50
2019-03-04T00:16:51.534Z,11.50
2019-03-04T00:19:20.118Z,11.60
2019-03-04T00:21:48.682Z,11.50
2019-03-04T00:24:17.216Z,11.60
2019-03-04T00:26:45.774Z,11.60
2019-03-04T00:29:14.365Z,11.70
2019-03-04T00:31:45.480Z,11.70
2019-03-04T00:34:14.116Z,11.70
2019-03-04T00:36:42.638Z,11.70
2019-03-04T00:39:11.720Z,11.70
2019-03-04T00:41:40.347Z,11.70
2019-03-04T00:44:08.941Z,11.70
2019-03-04T00:46:37.441Z,11.70
2019-03-04T00:49:06.101Z,11.70
2019-03-04T00:51:34.666Z,11.80
2019-03-04T00:54:03.374Z,11.80
2019-03-04T00:56:31.870Z,11.80
2019-03-04T00:59:00.452Z,11.80
2019-03-04T01:01:29.019Z,11.70
2019-03-04T01:03:57.915Z,11.70
2019-03-04T01:06:26.441Z,11.70
2019-03-04T01:08:55.030Z,11.80
2019-03-04T01:11:23.600Z,11.70
2019-03-04T01:13:52.286Z,11.70
2019-03-04T01:16:20.854Z,11.70
2019-03-04T01:18:49.418Z,11.60
2019-03-04T01:21:18.016Z,11.60
2019-03-04T01:23:46.616Z,11.50
2019-03-04T01:26:15.266Z,11.50
2019-03-04T01:28:43.802Z,11.50
2019-03-04T01:31:12.322Z,11.50
2019-03-04T01:33:40.970Z,11.40
2019-03-04T01:36:09.568Z,11.40
2019-03-04T01:38:38.137Z,11.40
2019-03-04T01:41:08.589Z,11.40
2019-03-04T01:43:37.215Z,11.50
2019-03-04T01:46:05.923Z,11.50
2019-03-04T01:48:34.485Z,11.50
2019-03-04T01:51:03.033Z,11.50
2019-03-04T01:53:31.598Z,11.50
2019-03-04T01:56:00.130Z,11.50
2019-03-04T01:58:28.714Z,11.50
2019-03-04T02:00:57.399Z,11.50
2019-03-04T02:03:25.986Z,11.60
2019-03-04T02:05:54.634Z,11.50
2019-03-04T02:08:23.199Z,11.50
2019-03-04T02:10:51.877Z,11.50
2019-03-04T02:13:20.445Z,11.50
2019-03-04T02:15:49.035Z,11.60
2019-03-04T02:18:17.670Z,11.60
2019-03-04T02:20:46.453Z,11.60
2019-03-04T02:23:15.021Z,11.60
2019-03-04T02:25:48.329Z,11.60
2019-03-04T02:28:16.828Z,11.60
2019-03-04T02:30:45.463Z,11.60
2019-03-04T02:33:13.992Z,11.50
2019-03-04T02:35:42.581Z,11.50
2019-03-04T02:38:11.073Z,11.60
2019-03-04T02:40:39.787Z,11.60
2019-03-04T02:43:08.344Z,11.50
2019-03-04T02:45:36.916Z,11.50
2019-03-04T02:48:05.631Z,11.60
2019-03-04T02:50:34.215Z,11.60
2019-03-04T02:53:02.777Z,11.60
2019-03-04T02:55:31.358Z,11.70
2019-03-04T02:57:59.963Z,11.60
2019-03-04T03:00:28.529Z,11.60
2019-03-04T03:02:57.027Z,11.60
2019-03-04T03:05:25.625Z,11.60
2019-03-04T03:07:54.259Z,11.60
2019-03-04T03:10:22.856Z,11.70
2019-03-04T03:12:51.444Z,11.70
2019-03-04T03:15:21.578Z,11.70
2019-03-04T03:17:50.143Z,11.70
2019-03-04T03:20:18.737Z,11.70
2019-03-04T03:22:47.311Z,11.70
2019-03-04T03:25:16.447Z,11.60
2019-03-04T03:27:45.021Z,11.60
2019-03-04T03:30:20.637Z,11.60
2019-03-04T03:32:49.215Z,11.60
2019-03-04T03:35:17.940Z,11.50
2019-03-04T03:37:46.645Z,11.60
2019-03-04T03:40:16.966Z,11.50
2019-03-04T03:42:45.521Z,11.50
2019-03-04T03:45:14.348Z,11.40
2019-03-04T03:47:42.932Z,11.40
2019-03-04T03:50:16.535Z,11.30
2019-03-04T03:52:45.745Z,11.30
2019-03-04T03:55:15.767Z,11.30
2019-03-04T03:57:44.411Z,11.30
2019-03-04T04:00:17.792Z,11.30
2019-03-04T04:02:46.456Z,11.30
2019-03-04T04:05:15.083Z,11.30
2019-03-04T04:07:43.935Z,11.30
2019-03-04T04:10:14.141Z,11.30
2019-03-04T04:12:42.783Z,11.30
2019-03-04T04:15:16.194Z,11.30
2019-03-04T04:17:44.787Z,11.30
2019-03-04T04:20:13.988Z,11.20
2019-03-04T04:22:42.632Z,11.20
2019-03-04T04:25:12.165Z,11.20
2019-03-04T04:27:40.817Z,11.20
2019-03-04T04:30:15.902Z,11.20
2019-03-04T04:32:44.491Z,11.20
2019-03-04T04:35:13.129Z,11.20
2019-03-04T04:37:41.667Z,11.20
2019-03-04T04:40:14.053Z,11.30
2019-03-04T04:42:42.741Z,11.20
2019-03-04T04:45:11.424Z,11.30
2019-03-04T04:47:43.962Z,11.20
2019-03-04T04:50:17.877Z,11.20
2019-03-04T04:52:46.449Z,11.30
2019-03-04T04:55:15.013Z,11.50
2019-03-04T04:57:43.611Z,11.50
2019-03-04T05:00:17.402Z,11.60
2019-03-04T05:02:45.958Z,11.70
2019-03-04T05:05:14.870Z,11.90
2019-03-04T05:07:43.589Z,11.90
2019-03-04T05:10:20.312Z,12.00
2019-03-04T05:12:48.895Z,12.10
2019-03-04T05:15:17.711Z,12.00
2019-03-04T05:17:46.293Z,12.10
2019-03-04T05:20:20.215Z,12.10
2019-03-04T05:22:48.788Z,12.20
2019-03-04T05:25:17.420Z,12.20
2019-03-04T05:27:46.096Z,12.20
2019-03-04T05:30:21.607Z,12.30
2019-03-04T05:32:50.261Z,12.20
2019-03-04T05:35:21.593Z,12.20
2019-03-04T05:37:50.197Z,12.30
2019-03-04T05:40:19.696Z,12.40
2019-03-04T05:42:48.351Z,12.30
2019-03-04T05:45:18.731Z,12.40
2019-03-04T05:47:47.485Z,12.40
2019-03-04T05:50:19.045Z,12.30
2019-03-04T05:52:47.651Z,12.30
2019-03-04T05:55:16.367Z,12.30
2019-03-04T05:57:44.945Z,12.40
2019-03-04T06:00:15.718Z,12.40
2019-03-04T06:02:44.372Z,12.40
2019-03-04T06:05:14.701Z,12.40
2019-03-04T06:07:44.921Z,12.40
2019-03-04T06:10:13.755Z,12.40
2019-03-04T06:12:42.371Z,12.40
2019-03-04T06:15:13.844Z,12.40
2019-03-04T06:17:42.430Z,12.40
2019-03-04T06:20:13.445Z,12.40
2019-03-04T06:22:41.959Z,12.40
2019-03-04T06:25:15.464Z,12.30
2019-03-04T06:27:44.073Z,12.20
2019-03-04T06:30:15.672Z,12.10
2019-03-04T06:32:44.281Z,11.90
2019-03-04T06:35:14.192Z,11.20
2019-03-04T06:37:42.783Z,10.70
2019-03-04T06:40:14.066Z,10.20
2019-03-04T06:42:42.642Z,10.00
2019-03-04T06:45:15.575Z,9.80
2019-03-04T06:47:44.348Z,9.80
2019-03-04T06:50:41.201Z,9.80
2019-03-04T06:53:09.777Z,9.90
2019-03-04T06:55:50.051Z,9.90
2019-03-04T06:58:18.645Z,9.90
2019-03-04T07:00:50.268Z,9.70
2019-03-04T07:03:21.341Z,9.70
2019-03-04T07:05:50.611Z,9.70
2019-03-04T07:08:37.338Z,9.60
2019-03-04T07:11:07.000Z,9.60
2019-03-04T07:13:35.578Z,9.50
2019-03-04T07:16:04.715Z,9.50
2019-03-04T07:18:34.859Z,9.40
2019-03-04T07:21:03.426Z,9.40
2019-03-04T07:23:31.998Z,9.40
2019-03-04T07:26:00.599Z,9.30
2019-03-04T07:28:29.189Z,9.30
2019-03-04T07:30:57.955Z,9.30
2019-03-04T07:33:26.536Z,9.20
2019-03-04T07:35:55.355Z,9.20
2019-03-04T07:38:45.284Z,9.30
2019-03-04T07:41:15.487Z,9.40
2019-03-04T07:43:45.140Z,9.40
2019-03-04T07:46:14.872Z,9.40
2019-03-04T07:48:44.974Z,9.40
2019-03-04T07:51:16.011Z,9.30
2019-03-04T07:53:46.612Z,9.20
2019-03-04T07:56:16.458Z,9.20
2019-03-04T07:58:46.565Z,9.10
2019-03-04T08:01:15.393Z,9.10
2019-03-04T08:03:43.976Z,9.30
2019-03-04T08:06:12.786Z,9.60
2019-03-04T08:09:01.863Z,9.70
2019-03-04T08:11:51.850Z,9.70
2019-03-04T08:14:20.520Z,9.70
2019-03-04T08:16:49.081Z,9.60
2019-03-04T08:19:17.668Z,9.70
2019-03-04T08:21:46.394Z,9.80
2019-03-04T08:24:15.214Z,9.80
2019-03-04T08:26:44.568Z,9.70
2019-03-04T08:29:13.342Z,9.50
2019-03-04T08:31:43.374Z,9.00
2019-03-04T08:34:12.767Z,8.80
2019-03-04T08:36:41.310Z,8.60
2019-03-04T08:39:10.585Z,8.20
2019-03-04T08:41:39.709Z,8.10
2019-03-04T08:44:08.296Z,8.10
2019-03-04T08:46:37.586Z,8.00
2019-03-04T08:49:06.885Z,8.10
2019-03-04T08:51:37.072Z,8.20
2019-03-04T08:54:09.051Z,8.40
2019-03-04T08:56:38.161Z,8.60
2019-03-04T08:59:08.957Z,8.80
2019-03-04T09:01:39.156Z,8.90
2019-03-04T09:04:09.228Z,9.00
2019-03-04T09:06:37.721Z,9.20
2019-03-04T09:09:07.797Z,9.40
2019-03-04T09:11:36.915Z,9.50
2019-03-04T09:14:05.579Z,9.70
2019-03-04T09:16:34.145Z,9.80
2019-03-04T09:19:02.979Z,9.90
2019-03-04T09:21:31.551Z,10.20
2019-03-04T09:24:00.399Z,10.30
2019-03-04T09:26:28.958Z,10.20
2019-03-04T09:28:57.805Z,10.20
2019-03-04T09:31:26.373Z,10.10
2019-03-04T09:33:54.957Z,10.10
2019-03-04T09:36:24.326Z,10.00
2019-03-04T09:38:53.570Z,10.00
2019-03-04T09:41:22.069Z,10.00
2019-03-04T09:43:50.654Z,10.00
2019-03-04T09:46:20.683Z,9.90
2019-03-04T09:48:49.565Z,10.00
2019-03-04T09:51:24.447Z,10.00
2019-03-04T09:53:50.975Z,10.00
2019-03-04T09:56:20.375Z,10.10
2019-03-04T09:58:48.940Z,10.10
2019-03-04T10:01:20.658Z,10.10
2019-03-04T10:03:54.920Z,10.20
2019-03-04T10:06:50.664Z,10.20
2019-03-04T10:09:57.433Z,10.10
2019-03-04T10:12:52.866Z,10.10
2019-03-04T10:15:44.843Z,9.80
2019-03-04T10:18:40.341Z,9.50
2019-03-04T10:21:12.002Z,9.30
2019-03-04T10:23:52.461Z,9.20
2019-03-04T10:26:42.032Z,9.30
2019-03-04T10:29:17.048Z,9.30
2019-03-04T10:32:18.490Z,9.50
2019-03-04T10:35:12.397Z,9.60
2019-03-04T10:37:43.966Z,9.70
2019-03-04T10:40:15.703Z,9.70
2019-03-04T10:43:14.064Z,9.80
2019-03-04T10:46:09.751Z,10.00
2019-03-04T10:48:38.525Z,10.10
2019-03-04T10:51:07.186Z,10.00
2019-03-04T10:53:35.769Z,10.10
2019-03-04T10:56:05.681Z,10.20
2019-03-04T10:58:34.518Z,10.30
2019-03-04T11:01:03.116Z,10.50
2019-03-04T11:03:33.974Z,10.30
2019-03-04T11:06:03.418Z,10.30
2019-03-04T11:08:32.254Z,10.10
2019-03-04T11:11:03.149Z,9.70
2019-03-04T11:13:32.577Z,9.30
2019-03-04T11:16:01.269Z,8.70
2019-03-04T11:18:33.645Z,7.60
2019-03-04T11:21:03.334Z,7.10
2019-03-04T11:23:32.014Z,6.90
2019-03-04T11:26:00.767Z,6.80
2019-03-04T11:28:29.382Z,6.80
2019-03-04T11:31:00.287Z,6.80
2019-03-04T11:33:30.798Z,6.80
2019-03-04T11:36:01.097Z,6.80
2019-03-04T11:38:41.971Z,6.80
2019-03-04T11:41:13.873Z,6.80
2019-03-04T11:43:43.401Z,6.80
2019-03-04T11:46:12.241Z,6.90
2019-03-04T11:48:42.040Z,7.00
2019-03-04T11:51:11.786Z,7.20
2019-03-04T11:53:42.645Z,7.30
2019-03-04T11:56:11.467Z,7.30
2019-03-04T11:58:40.030Z,7.30
2019-03-04T12:01:12.955Z,7.30
2019-03-04T12:03:43.717Z,7.30
2019-03-04T12:06:12.299Z,7.40
2019-03-04T12:08:40.854Z,7.40
2019-03-04T12:11:09.449Z,7.70
2019-03-04T12:13:38.284Z,7.80
2019-03-04T12:16:08.334Z,7.90
2019-03-04T12:18:37.230Z,8.10
2019-03-04T12:21:05.906Z,8.30
2019-03-04T12:23:35.310Z,8.50
2019-03-04T12:26:05.362Z,8.70
2019-03-04T12:28:33.994Z,8.50
2019-03-04T12:31:04.755Z,8.40
2019-03-04T12:33:34.970Z,8.30
2019-03-04T12:36:05.190Z,8.10
2019-03-04T12:38:33.799Z,8.00
2019-03-04T12:41:02.732Z,8.10
2019-03-04T12:43:31.313Z,8.30
2019-03-04T12:46:01.623Z,8.30
2019-03-04T12:48:30.421Z,8.10
2019-03-04T12:51:00.142Z,8.10
2019-03-04T12:53:37.082Z,8.10
2019-03-04T12:55:59.468Z,8.10
2019-03-04T12:58:28.030Z,8.10
2019-03-04T13:00:56.610Z,8.00
2019-03-04T13:03:25.339Z,8.20
2019-03-04T13:05:55.035Z,8.10
2019-03-04T13:08:23.857Z,8.20
2019-03-04T13:10:53.972Z,8.30
2019-03-04T13:13:22.700Z,8.40
2019-03-04T13:15:51.577Z,8.40
2019-03-04T13:18:20.807Z,8.50
2019-03-04T13:20:50.710Z,8.60
2019-03-04T13:23:20.059Z,8.80
2019-03-04T13:25:48.922Z,8.90
2019-03-04T13:28:17.466Z,8.80
2019-03-04T13:30:46.358Z,8.90
2019-03-04T13:33:15.283Z,9.00
2019-03-04T13:35:47.336Z,9.00
2019-03-04T13:38:17.875Z,9.10
2019-03-04T13:40:47.814Z,9.10
2019-03-04T13:43:17.863Z,9.00
2019-03-04T13:45:48.495Z,9.10
2019-03-04T13:48:19.569Z,9.10
2019-03-04T13:50:49.546Z,9.00
2019-03-04T13:53:20.057Z,8.80
2019-03-04T13:55:51.127Z,8.80
2019-03-04T13:58:22.518Z,8.80
2019-03-04T14:00:51.166Z,8.90
2019-03-04T14:03:21.202Z,8.90
2019-03-04T14:05:51.832Z,8.70
2019-03-04T14:08:20.909Z,8.80
2019-03-04T14:10:50.711Z,8.70
2019-03-04T14:13:19.610Z,8.70
2019-03-04T14:15:59.697Z,8.80
2019-03-04T14:18:29.581Z,9.00
2019-03-04T14:21:00.521Z,9.00
2019-03-04T14:23:32.388Z,9.10
2019-03-04T14:26:02.814Z,9.00
2019-03-04T14:28:31.738Z,9.10
2019-03-04T14:31:05.338Z,9.10
2019-03-04T14:33:33.851Z,9.20
2019-03-04T14:36:04.026Z,9.20
2019-03-04T14:38:33.785Z,9.10
2019-03-04T14:41:02.343Z,8.90
2019-03-04T14:43:30.925Z,8.80
2019-03-04T14:46:02.250Z,8.80
2019-03-04T14:48:31.558Z,8.80
2019-03-04T14:51:01.235Z,8.80
2019-03-04T14:53:31.653Z,8.80
2019-03-04T14:56:03.578Z,8.90
2019-03-04T14:58:33.061Z,8.90
2019-03-04T15:01:01.766Z,8.90
2019-03-04T15:03:32.386Z,8.80
2019-03-04T15:06:06.873Z,8.70
2019-03-04T15:08:35.161Z,8.70
2019-03-04T15:11:05.280Z,8.60
2019-03-04T15:13:35.225Z,8.60
2019-03-04T15:16:04.596Z,8.60
2019-03-04T15:18:35.071Z,8.60
2019-03-04T15:21:04.623Z,8.50
2019-03-04T15:23:33.950Z,8.60
2019-03-04T15:26:04.370Z,8.60
2019-03-04T15:28:33.005Z,8.60
2019-03-04T15:31:02.903Z,8.70
2019-03-04T15:33:32.679Z,8.70
2019-03-04T15:36:01.919Z,8.70
2019-03-04T15:38:31.059Z,8.80
2019-03-04T15:40:59.610Z,8.80
2019-03-04T15:43:36.050Z,8.70
2019-03-04T15:46:04.749Z,8.70
2019-03-04T15:48:34.133Z,8.50
2019-03-04T15:51:05.817Z,8.50
2019-03-04T15:53:35.198Z,8.50
2019-03-04T15:56:04.015Z,8.50
2019-03-04T15:58:32.600Z,8.40
2019-03-04T16:01:01.094Z,8.40
2019-03-04T16:03:31.811Z,8.30
2019-03-04T16:06:00.433Z,8.30
2019-03-04T16:08:31.303Z,8.20
2019-03-04T16:11:00.945Z,8.20
2019-03-04T16:13:30.541Z,8.20
2019-03-04T16:15:59.926Z,8.10
2019-03-04T16:18:32.301Z,8.10
2019-03-04T16:21:02.384Z,8.10
2019-03-04T16:23:33.595Z,7.90
2019-03-04T16:26:04.914Z,7.90
2019-03-04T16:28:36.797Z,7.80
2019-03-04T16:31:06.541Z,7.80
2019-03-04T16:33:39.331Z,7.80
2019-03-04T16:36:07.547Z,7.70
2019-03-04T16:38:38.218Z,7.70
2019-03-04T16:41:08.328Z,7.70
2019-03-04T16:43:37.484Z,7.70
2019-03-04T16:46:06.233Z,7.60
2019-03-04T16:48:34.864Z,7.60
2019-03-04T16:51:03.407Z,7.60
2019-03-04T16:53:33.826Z,7.50
2019-03-04T16:56:02.388Z,7.50
2019-03-04T16:58:31.043Z,7.50
2019-03-04T17:01:01.325Z,7.50
2019-03-04T17:03:31.435Z,7.40
2019-03-04T17:06:00.394Z,7.40
2019-03-04T17:08:31.478Z,7.30
2019-03-04T17:11:01.482Z,7.30
2019-03-04T17:13:33.441Z,7.30
2019-03-04T17:16:02.668Z,7.30
2019-03-04T17:18:35.613Z,7.30
2019-03-04T17:21:04.521Z,7.30
2019-03-04T17:23:33.236Z,7.30
2019-03-04T17:26:04.988Z,7.20
2019-03-04T17:28:33.569Z,7.20
2019-03-04T17:31:03.464Z,7.20
2019-03-04T17:33:33.934Z,7.10
2019-03-04T17:36:02.919Z,7.10
2019-03-04T17:38:31.832Z,7.10
2019-03-04T17:41:00.430Z,7.00
2019-03-04T17:43:32.064Z,7.00
2019-03-04T17:46:00.838Z,7.00
2019-03-04T17:48:31.071Z,7.00
2019-03-04T17:50:59.907Z,7.00
2019-03-04T17:53:28.530Z,7.00
2019-03-04T17:55:57.129Z,7.00
2019-03-04T17:58:26.851Z,7.00
2019-03-04T18:00:57.658Z,6.90
2019-03-04T18:03:26.293Z,6.90
2019-03-04T18:05:55.672Z,6.90
2019-03-04T18:08:26.583Z,6.90
2019-03-04T18:10:56.935Z,6.90
2019-03-04T18:13:26.792Z,6.90
2019-03-04T18:15:56.169Z,6.90
2019-03-04T18:18:24.724Z,6.90
2019-03-04T18:20:54.997Z,6.90
2019-03-04T18:23:24.534Z,6.80
2019-03-04T18:26:01.425Z,6.80
2019-03-04T18:29:01.542Z,6.80
2019-03-04T18:31:36.231Z,6.70
2019-03-04T18:34:17.534Z,6.70
2019-03-04T18:36:57.630Z,6.70
2019-03-04T18:39:37.822Z,6.70
2019-03-04T18:42:20.130Z,6.70
2019-03-04T18:45:06.347Z,6.60
2019-03-04T18:47:47.024Z,6.60
2019-03-04T18:50:15.937Z,6.60
2019-03-04T18:52:44.506Z,6.60
2019-03-04T18:55:13.622Z,6.70
2019-03-04T18:57:44.087Z,6.70
2019-03-04T19:00:24.753Z,6.70
2019-03-04T19:02:53.435Z,6.70
2019-03-04T19:05:23.662Z,6.70
2019-03-04T19:07:53.154Z,6.70
2019-03-04T19:10:23.380Z,6.80
2019-03-04T19:12:51.942Z,6.80
2019-03-04T19:15:22.295Z,6.80
2019-03-04T19:17:53.612Z,6.80
2019-03-04T19:20:23.956Z,6.80
2019-03-04T19:22:53.769Z,6.80
2019-03-04T19:25:22.409Z,6.80
2019-03-04T19:27:52.534Z,6.80
2019-03-04T19:30:22.161Z,6.90
2019-03-04T19:32:52.051Z,6.80
2019-03-04T19:35:20.633Z,6.80
2019-03-04T19:37:49.894Z,6.80
2019-03-04T19:40:20.254Z,6.80
2019-03-04T19:42:48.989Z,6.80
2019-03-04T19:45:20.214Z,6.70
2019-03-04T19:47:49.049Z,6.80
2019-03-04T19:50:19.336Z,6.70
2019-03-04T19:52:47.974Z,6.70
2019-03-04T19:55:17.823Z,6.70
2019-03-04T19:57:47.731Z,6.70
2019-03-04T20:00:26.047Z,6.60
2019-03-04T20:02:56.242Z,6.60
2019-03-04T20:05:25.309Z,6.60
2019-03-04T20:07:53.999Z,6.60
2019-03-04T20:10:23.472Z,6.50
2019-03-04T20:12:54.791Z,6.50
2019-03-04T20:15:32.249Z,6.50
2019-03-04T20:18:01.238Z,6.50
2019-03-04T20:20:30.821Z,6.50
2019-03-04T20:23:02.952Z,6.40
2019-03-04T20:25:33.702Z,6.40
2019-03-04T20:28:02.441Z,6.40
2019-03-04T20:30:33.104Z,6.40
2019-03-04T20:33:01.746Z,6.40
2019-03-04T20:35:30.887Z,6.30
2019-03-04T20:38:03.168Z,6.30
2019-03-04T20:40:33.821Z,6.30
2019-03-04T20:43:03.093Z,6.40
2019-03-04T20:45:33.014Z,6.30
2019-03-04T20:48:03.293Z,6.30
2019-03-04T20:50:33.611Z,6.30
2019-03-04T20:53:02.502Z,6.40
2019-03-04T20:55:31.745Z,6.40
2019-03-04T20:58:02.129Z,6.50
2019-03-04T21:00:37.079Z,6.50
2019-03-04T21:03:06.913Z,6.50
2019-03-04T21:05:36.898Z,6.60
2019-03-04T21:08:09.642Z,6.70
2019-03-04T21:10:39.066Z,6.70
2019-03-04T21:13:15.833Z,6.70
2019-03-04T21:15:44.866Z,6.80
2019-03-04T21:18:15.839Z,6.80
2019-03-04T21:20:46.381Z,6.90
2019-03-04T21:23:17.426Z,6.90
2019-03-04T21:25:53.302Z,7.00
2019-03-04T21:28:56.482Z,7.00
2019-03-04T21:31:52.404Z,7.00
2019-03-04T21:34:27.743Z,7.10
2019-03-04T21:37:23.207Z,7.10
2019-03-04T21:39:54.849Z,7.10
2019-03-04T21:42:27.397Z,7.00
2019-03-04T21:45:04.931Z,7.10
2019-03-04T21:47:54.155Z,7.10
2019-03-04T21:50:40.135Z,7.10
2019-03-04T21:53:12.792Z,7.20
2019-03-04T21:55:50.142Z,7.20
2019-03-04T21:58:18.769Z,7.20
2019-03-04T22:00:51.726Z,7.30
2019-03-04T22:03:21.944Z,7.30
2019-03-04T22:05:50.883Z,7.30
2019-03-04T22:08:19.868Z,7.30
2019-03-04T22:10:48.977Z,7.20
2019-03-04T22:13:19.335Z,7.10
2019-03-04T22:15:48.047Z,7.00
2019-03-04T22:18:20.799Z,6.80
2019-03-04T22:20:51.908Z,6.70
2019-03-04T22:23:20.722Z,6.70
2019-03-04T22:26:01.345Z,6.60
2019-03-04T22:28:22.394Z,6.60
2019-03-04T22:30:51.269Z,6.60
2019-03-04T22:33:19.855Z,6.50
2019-03-04T22:35:48.531Z,6.50
2019-03-04T22:38:18.041Z,6.40
2019-03-04T22:40:46.725Z,6.40
2019-03-04T22:43:15.906Z,6.30
2019-03-04T22:45:48.083Z,6.20
2019-03-04T22:48:16.797Z,6.20
2019-03-04T22:50:48.696Z,6.20
2019-03-04T22:53:17.291Z,6.20
2019-03-04T22:55:47.025Z,6.10
2019-03-04T22:58:27.745Z,6.10
2019-03-04T23:00:57.574Z,6.10
2019-03-04T23:03:35.641Z,6.10
2019-03-04T23:06:21.836Z,6.10
2019-03-04T23:08:50.488Z,6.10
2019-03-04T23:11:25.440Z,6.10
2019-03-04T23:14:13.610Z,6.20
2019-03-04T23:16:46.064Z,6.20
2019-03-04T23:19:16.241Z,6.10
2019-03-04T23:21:45.197Z,6.10
2019-03-04T23:24:13.829Z,6.10
2019-03-04T23:26:42.425Z,6.10
2019-03-04T23:29:12.123Z,6.10
2019-03-04T23:31:42.037Z,6.20
2019-03-04T23:34:12.382Z,6.20
2019-03-04T23:36:42.300Z,6.20
2019-03-04T23:39:12.662Z,6.20
2019-03-04T23:41:42.876Z,6.20
2019-03-04T23:44:12.412Z,6.20
2019-03-04T23:46:40.976Z,6.20
2019-03-04T23:49:09.686Z,6.30
2019-03-04T23:51:38.321Z,6.30
2019-03-04T23:54:06.844Z,6.40
2019-03-04T23:56:36.329Z,6.40
2019-03-04T23:59:06.305Z,6.40
